Time;durP1;ratioP1;P1;durP2;ratioP2;P2;SDS_P1;SDS_P2;PMS_P1;PMS_P2;Temp;Humidity;BMP_temperature;BMP_pressure;BME280_temperature;BME280_humidity;BME280_pressure;Samples;Min_cycle;Max_cycle;Signal;HPM_P1;HPM_P2
2022/03/08 00:01:35;;;;;;;;;;;;;;;3.74;66.00;100500.63;5019682;28;19924;-65
2022/03/08 00:04:19;;;;;;;;;;;;;;;3.76;65.82;100500.72;5020333;28;19940;-65
2022/03/08 00:07:03;;;;;;;;;;;;;;;3.75;66.19;100502.41;5020200;28;20387;-65
2022/03/08 00:09:47;;;;;;;;;;;;;;;3.74;65.26;100497.22;5020182;28;19923;-65
2022/03/08 00:12:31;;;;;;;;;;;;;;;3.74;65.42;100495.50;5019646;28;19972;-66
2022/03/08 00:15:19;;;;;;;;;;;;;;;3.75;65.36;100506.66;5020297;28;20439;-65
2022/03/08 00:18:04;;;;;;;;;;;;;;;3.74;65.41;100492.94;5019118;28;19924;-65
2022/03/08 00:20:48;;;;;;;;;;;;;;;3.73;66.15;100482.63;5019937;28;19924;-65
2022/03/08 00:23:32;;;;;;;;;;;;;;;3.74;65.85;100487.81;5019758;28;19923;-65
2022/03/08 00:26:16;;;;;;;;;;;;;;;3.72;65.49;100488.56;5020058;28;19959;-65
2022/03/08 00:29:00;;;;;;;;;;;;;;;3.68;65.52;100476.38;5020181;28;19964;-65
2022/03/08 00:31:44;;;;;;;;;;;;;;;3.66;65.98;100490.00;5019981;28;19975;-65
2022/03/08 00:34:28;;;;;;;;;;;;;;;3.66;65.47;100486.56;5019672;28;19940;-65
2022/03/08 00:37:12;;;;;;;;;;;;;;;3.66;65.34;100484.88;5020100;28;20386;-65
2022/03/08 00:39:55;;;;;;;;;;;;;;;3.65;65.95;100485.69;5020491;28;19924;-65
2022/03/08 00:42:40;;;;;;;;;;;;;;;3.65;65.70;100478.00;5019605;28;19940;-65
2022/03/08 00:45:24;;;;;;;;;;;;;;;3.65;65.58;100478.00;5019606;28;19924;-65
2022/03/08 00:48:07;;;;;;;;;;;;;;;3.65;65.86;100483.13;5017987;28;19974;-65
2022/03/08 00:50:51;;;;;;;;;;;;;;;3.64;65.52;100483.03;5016787;28;20021;-65
2022/03/08 00:53:35;;;;;;;;;;;;;;;3.64;66.05;100477.91;5016887;28;19924;-64
2022/03/08 00:56:19;;;;;;;;;;;;;;;3.63;65.47;100482.16;5016687;28;19972;-65
2022/03/08 00:59:03;;;;;;;;;;;;;;;3.61;64.85;100470.94;5016342;28;19967;-65
2022/03/08 01:01:47;;;;;;;;;;;;;;;3.62;65.76;100466.69;5016654;28;19987;-65
2022/03/08 01:04:31;;;;;;;;;;;;;;;3.62;64.85;100470.16;5015905;28;19940;-65
2022/03/08 01:07:15;;;;;;;;;;;;;;;3.62;65.13;100474.38;5016713;28;20396;-65
2022/03/08 01:09:59;;;;;;;;;;;;;;;3.65;64.82;100466.84;5016537;28;19963;-65
2022/03/08 01:12:44;;;;;;;;;;;;;;;3.64;65.10;100471.13;5015588;28;19927;-65
2022/03/08 01:15:28;;;;;;;;;;;;;;;3.64;65.72;100467.66;5016097;28;19956;-64
2022/03/08 01:18:12;;;;;;;;;;;;;;;3.63;65.04;100464.22;5016030;28;19928;-65
2022/03/08 01:20:57;;;;;;;;;;;;;;;3.64;65.01;100459.97;5016272;28;19923;-65
2022/03/08 01:23:41;;;;;;;;;;;;;;;3.63;65.26;100458.19;5015842;28;20032;-65
2022/03/08 01:26:25;;;;;;;;;;;;;;;3.62;65.20;100464.13;5016077;28;19925;-65
2022/03/08 01:29:09;;;;;;;;;;;;;;;3.61;65.34;100457.25;5016133;28;19924;-65
2022/03/08 01:31:53;;;;;;;;;;;;;;;3.61;64.89;100458.13;5015125;28;19928;-65
2022/03/08 01:34:37;;;;;;;;;;;;;;;3.57;64.91;100452.78;5014725;28;19971;-66
2022/03/08 01:37:20;;;;;;;;;;;;;;;3.56;64.98;100448.47;5015389;28;20292;-65
2022/03/08 01:40:05;;;;;;;;;;;;;;;3.56;64.67;100446.75;5016402;28;19924;-64
2022/03/08 01:42:50;;;;;;;;;;;;;;;3.56;65.27;100440.78;5015057;28;20281;-65
2022/03/08 01:45:34;;;;;;;;;;;;;;;3.57;64.99;100445.09;5015411;28;19967;-65
2022/03/08 01:48:18;;;;;;;;;;;;;;;3.54;65.04;100440.66;5016107;28;19971;-64
2022/03/08 01:51:02;;;;;;;;;;;;;;;3.53;65.26;100438.91;5015328;28;19924;-64
2022/03/08 01:53:47;;;;;;;;;;;;;;;3.54;65.32;100440.66;5015391;28;19963;-65
2022/03/08 01:56:30;;;;;;;;;;;;;;;3.54;65.08;100435.53;5015677;28;19979;-65
2022/03/08 01:59:14;;;;;;;;;;;;;;;3.56;65.18;100430.50;5015723;28;19924;-64
2022/03/08 02:01:58;;;;;;;;;;;;;;;3.57;65.05;100429.72;5015453;28;19924;-65
2022/03/08 02:04:42;;;;;;;;;;;;;;;3.58;64.91;100426.34;5015716;28;20290;-65
2022/03/08 02:07:26;;;;;;;;;;;;;;;3.58;65.52;100426.34;5015533;28;19975;-64
2022/03/08 02:10:10;;;;;;;;;;;;;;;3.58;65.13;100410.97;5015699;28;19924;-66
2022/03/08 02:12:54;;;;;;;;;;;;;;;3.56;65.01;100410.88;5015097;28;20010;-65
2022/03/08 02:15:38;;;;;;;;;;;;;;;3.58;64.99;100414.41;5015343;28;20012;-64
2022/03/08 02:18:22;;;;;;;;;;;;;;;3.55;64.88;100401.44;5014188;28;19924;-65
2022/03/08 02:21:06;;;;;;;;;;;;;;;3.56;65.20;100400.63;5015152;28;20379;-65
2022/03/08 02:23:51;;;;;;;;;;;;;;;3.57;64.67;100401.53;5015301;28;19923;-65
2022/03/08 02:26:35;;;;;;;;;;;;;;;3.56;64.88;100390.38;5014216;28;19929;-65
2022/03/08 02:29:19;;;;;;;;;;;;;;;3.56;65.52;100387.81;5015196;28;20292;-66
2022/03/08 02:32:03;;;;;;;;;;;;;;;3.56;65.00;100377.56;5015175;28;19928;-65
2022/03/08 02:34:47;;;;;;;;;;;;;;;3.55;65.30;100373.22;5014868;28;19925;-65
2022/03/08 02:37:38;;;;;;;;;;;;;;;3.54;64.61;100368.91;5015262;28;19924;-64
2022/03/08 02:40:24;;;;;;;;;;;;;;;3.53;65.01;100358.59;5014322;28;19925;-65
2022/03/08 02:43:08;;;;;;;;;;;;;;;3.50;64.66;100361.88;5013542;28;19924;-65
2022/03/08 02:45:52;;;;;;;;;;;;;;;3.50;64.88;100364.47;5013634;28;19968;-64
2022/03/08 02:48:36;;;;;;;;;;;;;;;3.51;64.84;100355.94;5014790;28;19923;-65
2022/03/08 02:51:20;;;;;;;;;;;;;;;3.52;65.06;100372.22;5015005;28;19924;-65
2022/03/08 02:54:04;;;;;;;;;;;;;;;3.52;65.18;100357.69;5013601;28;20395;-65
2022/03/08 02:56:48;;;;;;;;;;;;;;;3.54;65.05;100356.09;5014889;28;19955;-65
2022/03/08 02:59:32;;;;;;;;;;;;;;;3.54;64.85;100348.41;5014688;28;19940;-65
2022/03/08 03:02:16;;;;;;;;;;;;;;;3.54;65.16;100347.53;5013307;28;19924;-64
2022/03/08 03:05:00;;;;;;;;;;;;;;;3.52;64.97;100337.19;5014678;28;20293;-65
2022/03/08 03:07:44;;;;;;;;;;;;;;;3.53;65.30;100326.13;5014039;28;20332;-65
2022/03/08 03:10:28;;;;;;;;;;;;;;;3.55;65.02;100331.34;5013468;28;20292;-65
2022/03/08 03:13:12;;;;;;;;;;;;;;;3.54;65.77;100327.91;5013903;28;19967;-65
2022/03/08 03:15:56;;;;;;;;;;;;;;;3.56;65.49;100328.84;5014762;28;19947;-64
2022/03/08 03:18:40;;;;;;;;;;;;;;;3.56;65.18;100325.44;5014334;28;20013;-65
2022/03/08 03:21:23;;;;;;;;;;;;;;;3.57;65.00;100322.06;5014300;28;19967;-65
2022/03/08 03:24:07;;;;;;;;;;;;;;;3.57;65.26;100324.63;5014169;28;20022;-65
2022/03/08 03:26:51;;;;;;;;;;;;;;;3.55;64.77;100321.97;5013876;28;19968;-65
2022/03/08 03:29:36;;;;;;;;;;;;;;;3.55;64.78;100319.41;5014031;28;19925;-65
2022/03/08 03:32:26;;;;;;;;;;;;;;;3.53;64.96;100318.44;5013404;28;19924;-65
2022/03/08 03:35:11;;;;;;;;;;;;;;;3.53;64.86;100321.00;5013717;28;19940;-65
2022/03/08 03:37:54;;;;;;;;;;;;;;;3.53;65.53;100320.16;5013228;28;20343;-65
2022/03/08 03:40:38;;;;;;;;;;;;;;;3.52;64.90;100320.94;5014052;28;20360;-66
2022/03/08 03:43:22;;;;;;;;;;;;;;;3.52;65.25;100313.25;5014434;28;20493;-65
2022/03/08 03:46:07;;;;;;;;;;;;;;;3.50;64.94;100313.19;5013848;28;19964;-64
2022/03/08 03:48:51;;;;;;;;;;;;;;;3.50;65.46;100314.06;5013117;28;19924;-64
2022/03/08 03:51:35;;;;;;;;;;;;;;;3.50;65.00;100310.63;5014239;28;20023;-65
2022/03/08 03:54:19;;;;;;;;;;;;;;;3.51;65.08;100304.69;5012613;28;19971;-65
2022/03/08 03:57:04;;;;;;;;;;;;;;;3.49;64.60;100307.19;5013517;28;20359;-64
2022/03/08 03:59:48;;;;;;;;;;;;;;;3.52;65.01;100300.44;5013816;28;19940;-64
2022/03/08 04:02:31;;;;;;;;;;;;;;;3.53;65.70;100305.63;5013603;28;19972;-64
2022/03/08 04:05:15;;;;;;;;;;;;;;;3.54;65.55;100311.66;5013695;28;19924;-65
2022/03/08 04:07:59;;;;;;;;;;;;;;;3.54;65.64;100317.66;5012881;28;19991;-64
2022/03/08 04:10:45;;;;;;;;;;;;;;;3.55;65.20;100313.41;5013911;28;19927;-65
2022/03/08 04:13:29;;;;;;;;;;;;;;;3.54;65.03;100297.13;5013921;28;20025;-65
2022/03/08 04:16:12;;;;;;;;;;;;;;;3.54;65.03;100304.81;5013452;28;20308;-65
2022/03/08 04:18:56;;;;;;;;;;;;;;;3.55;65.29;100300.59;5013156;28;19940;-65
2022/03/08 04:21:40;;;;;;;;;;;;;;;3.55;65.88;100303.16;5013761;28;19940;-65
2022/03/08 04:24:25;;;;;;;;;;;;;;;3.55;65.31;100303.16;5015177;28;20272;-64
2022/03/08 04:27:09;;;;;;;;;;;;;;;3.55;65.53;100298.03;5017376;28;20295;-65
2022/03/08 04:29:53;;;;;;;;;;;;;;;3.55;65.25;100293.78;5017760;28;19927;-65
2022/03/08 04:32:37;;;;;;;;;;;;;;;3.54;65.53;100289.44;5017681;28;19924;-65
2022/03/08 04:35:21;;;;;;;;;;;;;;;3.53;65.23;100294.50;5017246;28;19924;-64
2022/03/08 04:38:05;;;;;;;;;;;;;;;3.52;65.31;100296.19;5016325;28;19925;-65
2022/03/08 04:40:49;;;;;;;;;;;;;;;3.50;65.10;100285.88;5017151;28;19924;-65
2022/03/08 04:43:34;;;;;;;;;;;;;;;3.52;65.66;100290.19;5017124;28;19974;-65
2022/03/08 04:46:18;;;;;;;;;;;;;;;3.49;65.88;100283.25;5016697;28;19944;-65
2022/03/08 04:49:02;;;;;;;;;;;;;;;3.50;65.65;100291.00;5015942;28;19971;-64
2022/03/08 04:51:46;;;;;;;;;;;;;;;3.51;65.36;100291.84;5017140;28;19923;-65
2022/03/08 04:54:30;;;;;;;;;;;;;;;3.51;65.76;100297.00;5016709;28;20403;-65
2022/03/08 04:57:14;;;;;;;;;;;;;;;3.52;66.24;100292.75;5015521;28;19924;-64
2022/03/08 04:59:58;;;;;;;;;;;;;;;3.52;65.53;100296.19;5016630;28;20396;-65
2022/03/08 05:02:43;;;;;;;;;;;;;;;3.50;65.15;100303.81;5016793;28;20388;-65
2022/03/08 05:05:29;;;;;;;;;;;;;;;3.50;65.42;100303.81;5016530;28;20013;-64
2022/03/08 05:08:14;;;;;;;;;;;;;;;3.50;65.08;100296.13;5016686;28;20391;-65
2022/03/08 05:10:58;;;;;;;;;;;;;;;3.49;65.98;100302.06;5015756;28;20391;-65
2022/03/08 05:13:42;;;;;;;;;;;;;;;3.49;65.11;100293.50;5016729;28;19925;-64
2022/03/08 05:16:26;;;;;;;;;;;;;;;3.48;65.50;100292.59;5016809;28;20013;-65
2022/03/08 05:19:10;;;;;;;;;;;;;;;3.47;65.28;100289.97;5016322;28;20068;-65
2022/03/08 05:21:54;;;;;;;;;;;;;;;3.45;65.35;100287.31;5015669;28;20051;-65
2022/03/08 05:24:38;;;;;;;;;;;;;;;3.44;65.43;100284.69;5016092;28;20013;-65
2022/03/08 05:27:22;;;;;;;;;;;;;;;3.43;65.94;100294.06;5015825;28;20020;-65
2022/03/08 05:30:06;;;;;;;;;;;;;;;3.43;65.00;100290.63;5016486;28;19964;-64
2022/03/08 05:32:50;;;;;;;;;;;;;;;3.42;65.58;100287.19;5016492;28;19924;-64
2022/03/08 05:35:34;;;;;;;;;;;;;;;3.42;65.12;100283.75;5015897;28;20292;-65
2022/03/08 05:38:18;;;;;;;;;;;;;;;3.41;65.11;100277.75;5016144;28;19925;-65
2022/03/08 05:41:02;;;;;;;;;;;;;;;3.42;65.48;100274.38;5015145;28;19971;-65
2022/03/08 05:43:46;;;;;;;;;;;;;;;3.42;65.67;100265.81;5015716;28;19924;-65
2022/03/08 05:46:30;;;;;;;;;;;;;;;3.41;65.13;100264.94;5016152;28;19948;-65
2022/03/08 05:49:14;;;;;;;;;;;;;;;3.40;65.36;100277.66;5015780;28;19976;-65
2022/03/08 05:51:58;;;;;;;;;;;;;;;3.39;65.99;100275.91;5015277;28;20447;-65
2022/03/08 05:54:41;;;;;;;;;;;;;;;3.38;65.39;100269.00;5014480;28;20280;-65
2022/03/08 05:57:26;;;;;;;;;;;;;;;3.38;65.87;100267.34;5016095;28;19925;-65
2022/03/08 06:00:10;;;;;;;;;;;;;;;3.37;65.98;100264.69;5015947;28;20004;-65
2022/03/08 06:02:54;;;;;;;;;;;;;;;3.36;65.78;100261.25;5015101;28;20296;-65
2022/03/08 06:05:38;;;;;;;;;;;;;;;3.37;65.34;100262.13;5015311;28;19940;-64
2022/03/08 06:08:22;;;;;;;;;;;;;;;3.35;65.44;100255.25;5015466;28;19924;-65
2022/03/08 06:11:06;;;;;;;;;;;;;;;3.34;65.12;100253.50;5015604;28;19925;-65
2022/03/08 06:13:50;;;;;;;;;;;;;;;3.34;65.60;100253.50;5015170;28;19971;-65
2022/03/08 06:16:42;;;;;;;;;;;;;;;3.34;65.59;100252.63;5014659;28;20065;-65
2022/03/08 06:19:26;;;;;;;;;;;;;;;3.33;64.80;100256.88;5014165;28;20423;-65
2022/03/08 06:22:09;;;;;;;;;;;;;;;3.32;64.80;100257.69;5014806;28;19924;-64
2022/03/08 06:24:53;;;;;;;;;;;;;;;3.31;65.04;100255.03;5014827;28;20411;-65
2022/03/08 06:27:38;;;;;;;;;;;;;;;3.33;64.77;100263.66;5015513;28;19924;-65
2022/03/08 06:30:21;;;;;;;;;;;;;;;3.31;65.34;100263.59;5015103;28;20016;-65
2022/03/08 06:33:05;;;;;;;;;;;;;;;3.33;64.74;100262.00;5014993;28;20419;-65
2022/03/08 06:35:49;;;;;;;;;;;;;;;3.31;65.50;100271.28;5015303;28;19964;-64
2022/03/08 06:38:34;;;;;;;;;;;;;;;3.32;64.92;100265.38;5015201;28;20348;-65
2022/03/08 06:41:18;;;;;;;;;;;;;;;3.32;65.11;100262.81;5013997;28;20020;-65
2022/03/08 06:44:02;;;;;;;;;;;;;;;3.32;65.24;100265.38;5014393;28;20303;-64
2022/03/08 06:46:46;;;;;;;;;;;;;;;3.31;65.47;100271.28;5014270;28;20399;-64
2022/03/08 06:49:30;;;;;;;;;;;;;;;3.32;65.05;100282.41;5014861;28;19983;-65
2022/03/08 06:52:14;;;;;;;;;;;;;;;3.33;65.31;100285.06;5015064;28;20431;-64
2022/03/08 06:54:58;;;;;;;;;;;;;;;3.34;64.81;100286.81;5014625;28;20414;-65
2022/03/08 06:57:42;;;;;;;;;;;;;;;3.33;65.56;100279.94;5014179;28;19988;-64
2022/03/08 07:00:26;;;;;;;;;;;;;;;3.34;64.79;100270.56;5014442;28;19924;-64
2022/03/08 07:03:10;;;;;;;;;;;;;;;3.35;65.51;100277.44;5014768;28;20354;-65
2022/03/08 07:05:54;;;;;;;;;;;;;;;3.35;65.47;100274.88;5014053;28;19924;-65
2022/03/08 07:08:38;;;;;;;;;;;;;;;3.36;65.15;100276.63;5014474;28;19924;-65
2022/03/08 07:11:22;;;;;;;;;;;;;;;3.37;65.14;100275.84;5014797;28;20359;-65
2022/03/08 07:14:06;;;;;;;;;;;;;;;3.38;65.94;100274.13;5014540;28;20359;-64
2022/03/08 07:16:50;;;;;;;;;;;;;;;3.39;65.30;100269.09;5013637;28;20379;-64
2022/03/08 07:19:34;;;;;;;;;;;;;;;3.38;65.86;100271.56;5013722;28;19944;-65
2022/03/08 07:22:18;;;;;;;;;;;;;;;3.38;65.32;100280.16;5014137;28;19975;-64
2022/03/08 07:25:02;;;;;;;;;;;;;;;3.38;65.88;100284.38;5013529;28;19924;-65
2022/03/08 07:27:46;;;;;;;;;;;;;;;3.37;65.81;100288.66;5013569;28;19924;-65
2022/03/08 07:30:30;;;;;;;;;;;;;;;3.36;65.17;100286.88;5013238;28;19952;-64
2022/03/08 07:33:14;;;;;;;;;;;;;;;3.35;65.38;100283.44;5014325;28;19924;-65
2022/03/08 07:35:59;;;;;;;;;;;;;;;3.37;65.40;100285.19;5013956;28;19967;-64
2022/03/08 07:38:43;;;;;;;;;;;;;;;3.36;65.91;100292.00;5014959;28;19924;-65
2022/03/08 07:41:27;;;;;;;;;;;;;;;3.35;65.25;100298.81;5014326;28;19940;-64
2022/03/08 07:44:10;;;;;;;;;;;;;;;3.33;65.73;100297.88;5012904;28;20009;-65
2022/03/08 07:46:55;;;;;;;;;;;;;;;3.32;65.07;100296.13;5014027;28;20013;-64
2022/03/08 07:49:39;;;;;;;;;;;;;;;3.32;65.57;100295.22;5013070;28;19924;-65
2022/03/08 07:52:23;;;;;;;;;;;;;;;3.31;65.24;100302.03;5013726;28;20002;-65
2022/03/08 07:55:08;;;;;;;;;;;;;;;3.31;65.91;100296.00;5013459;28;19968;-64
2022/03/08 07:57:52;;;;;;;;;;;;;;;3.29;65.78;100290.84;5014415;28;19971;-64
2022/03/08 08:00:35;;;;;;;;;;;;;;;3.31;65.82;100293.47;5016899;28;19967;-64
2022/03/08 08:03:19;;;;;;;;;;;;;;;3.32;65.14;100290.09;5017749;28;19972;-65
2022/03/08 08:06:03;;;;;;;;;;;;;;;3.31;65.69;100284.09;5017875;28;19928;-65
2022/03/08 08:08:47;;;;;;;;;;;;;;;3.33;65.39;100284.16;5018159;28;19924;-65
2022/03/08 08:11:31;;;;;;;;;;;;;;;3.34;65.91;100288.50;5016809;28;20002;-65
2022/03/08 08:14:15;;;;;;;;;;;;;;;3.36;65.86;100289.44;5017378;28;19940;-65
2022/03/08 08:16:59;;;;;;;;;;;;;;;3.37;65.77;100282.63;5017667;28;19924;-64
2022/03/08 08:19:44;;;;;;;;;;;;;;;3.38;65.52;100285.28;5016647;28;19975;-65
2022/03/08 08:22:29;;;;;;;;;;;;;;;3.40;65.28;100283.69;5017330;28;19925;-65
2022/03/08 08:25:13;;;;;;;;;;;;;;;3.40;65.66;100285.34;5017177;28;19971;-65
2022/03/08 08:27:57;;;;;;;;;;;;;;;3.41;65.74;100280.31;5016271;28;20312;-65
2022/03/08 08:30:41;;;;;;;;;;;;;;;3.41;65.19;100285.44;5016757;28;19967;-65
2022/03/08 08:33:25;;;;;;;;;;;;;;;3.42;65.90;100287.19;5016418;28;19969;-64
2022/03/08 08:36:09;;;;;;;;;;;;;;;3.43;65.67;100295.75;5017367;28;20073;-64
2022/03/08 08:38:53;;;;;;;;;;;;;;;3.43;65.69;100288.06;5017531;28;20044;-65
2022/03/08 08:41:37;;;;;;;;;;;;;;;3.44;65.40;100293.25;5016260;28;19972;-65
2022/03/08 08:44:21;;;;;;;;;;;;;;;3.46;65.63;100296.78;5017002;28;19964;-65
2022/03/08 08:47:09;;;;;;;;;;;;;;;3.49;65.71;100293.50;5017290;28;19923;-64
2022/03/08 08:49:53;;;;;;;;;;;;;;;3.50;66.19;100292.69;5016555;28;19971;-64
2022/03/08 08:52:38;;;;;;;;;;;;;;;3.53;65.94;100300.50;5016784;28;19987;-65
2022/03/08 08:55:24;;;;;;;;;;;;;;;3.53;65.69;100300.50;5016548;28;19924;-65
2022/03/08 08:58:08;;;;;;;;;;;;;;;3.55;65.24;100305.72;5016480;28;19924;-64
2022/03/08 09:00:52;;;;;;;;;;;;;;;3.56;65.56;100310.06;5015996;28;19925;-64
2022/03/08 09:03:36;;;;;;;;;;;;;;;3.56;65.89;100310.91;5015807;28;19925;-64
2022/03/08 09:06:19;;;;;;;;;;;;;;;3.58;65.41;100311.88;5016232;28;19925;-64
2022/03/08 09:09:03;;;;;;;;;;;;;;;3.61;65.44;100318.81;5014888;28;19928;-64
2022/03/08 09:11:47;;;;;;;;;;;;;;;3.65;65.58;100313.03;5015577;28;19971;-64
2022/03/08 09:14:31;;;;;;;;;;;;;;;3.66;65.69;100307.97;5016575;28;19971;-64
2022/03/08 09:17:15;;;;;;;;;;;;;;;3.68;65.69;100309.75;5015573;28;19925;-63
2022/03/08 09:19:59;;;;;;;;;;;;;;;3.71;65.82;100307.31;5016010;28;19988;-64
2022/03/08 09:22:43;;;;;;;;;;;;;;;3.73;65.72;100305.72;5015374;28;19925;-64
2022/03/08 09:25:27;;;;;;;;;;;;;;;3.75;65.62;100304.13;5016003;28;19924;-64
2022/03/08 09:28:11;;;;;;;;;;;;;;;3.77;66.02;100305.06;5015848;28;20400;-63
2022/03/08 09:30:55;;;;;;;;;;;;;;;3.78;65.49;100304.28;5016243;28;19924;-64
2022/03/08 09:33:40;;;;;;;;;;;;;;;3.80;65.81;100300.09;5016437;28;19967;-64
2022/03/08 09:36:24;;;;;;;;;;;;;;;3.81;65.54;100289.03;5015159;28;19928;-64
2022/03/08 09:39:08;;;;;;;;;;;;;;;3.83;65.44;100300.22;5015894;28;20010;-64
2022/03/08 09:41:55;;;;;;;;;;;;;;;3.84;65.79;100294.28;5015371;28;19924;-64
2022/03/08 09:44:39;;;;;;;;;;;;;;;3.86;65.30;100294.38;5014828;28;19924;-64
2022/03/08 09:47:23;;;;;;;;;;;;;;;3.86;65.02;100279.84;5014892;28;19928;-64
2022/03/08 09:50:10;;;;;;;;;;;;;;;3.87;65.24;100279.03;5016176;28;20411;-64
2022/03/08 09:52:55;;;;;;;;;;;;;;;3.89;65.46;100274.88;5015052;28;19928;-64
2022/03/08 09:55:39;;;;;;;;;;;;;;;3.92;65.45;100286.94;5015736;28;20383;-64
2022/03/08 09:58:23;;;;;;;;;;;;;;;3.93;65.95;100281.00;5016150;28;20116;-65
2022/03/08 10:01:07;;;;;;;;;;;;;;;3.94;65.43;100275.97;5015320;28;19923;-65
2022/03/08 10:03:51;;;;;;;;;;;;;;;3.95;65.70;100280.31;5014916;28;20007;-64
2022/03/08 10:06:39;;;;;;;;;;;;;;;3.95;65.05;100275.16;5014555;28;19975;-65
2022/03/08 10:09:24;;;;;;;;;;;;;;;3.99;65.74;100280.41;5014082;28;19978;-63
2022/03/08 10:12:15;;;;;;;;;;;;;;;4.02;65.04;100278.00;5015296;28;19963;-64
2022/03/08 10:15:15;;;;;;;;;;;;;;;4.01;65.25;100273.69;5014086;28;19972;-63
2022/03/08 10:17:59;;;;;;;;;;;;;;;4.02;65.94;100271.19;5015383;28;19963;-64
2022/03/08 10:20:43;;;;;;;;;;;;;;;4.02;65.13;100260.03;5014796;28;19924;-64
2022/03/08 10:23:27;;;;;;;;;;;;;;;4.03;65.73;100257.56;5015616;28;20014;-65
2022/03/08 10:26:12;;;;;;;;;;;;;;;4.04;65.09;100258.44;5015118;28;19951;-65
2022/03/08 10:28:57;;;;;;;;;;;;;;;4.05;65.87;100263.63;5015113;28;20357;-64
2022/03/08 10:31:41;;;;;;;;;;;;;;;4.05;65.75;100266.19;5015086;28;19925;-64
2022/03/08 10:34:24;;;;;;;;;;;;;;;4.11;66.04;100268.19;5014082;28;19971;-64
2022/03/08 10:37:18;;;;;;;;;;;;;;;4.13;65.55;100263.97;5013596;28;19924;-64
2022/03/08 10:40:05;;;;;;;;;;;;;;;4.17;65.01;100258.19;5013901;28;19972;-64
2022/03/08 10:42:57;;;;;;;;;;;;;;;4.19;65.54;100258.28;5014997;28;20396;-64
2022/03/08 10:45:51;;;;;;;;;;;;;;;4.20;65.68;100255.75;5014816;28;20399;-64
2022/03/08 10:48:36;;;;;;;;;;;;;;;4.20;65.39;100252.34;5014840;28;19966;-65
2022/03/08 10:51:21;;;;;;;;;;;;;;;4.22;65.15;100238.75;5014224;28;19963;-64
2022/03/08 10:54:14;;;;;;;;;;;;;;;4.23;64.71;100237.94;5014809;28;19971;-64
2022/03/08 10:56:58;;;;;;;;;;;;;;;4.25;65.51;100232.88;5014044;28;19939;-64
2022/03/08 10:59:52;;;;;;;;;;;;;;;4.27;65.39;100231.25;5014612;28;19924;-64
2022/03/08 11:02:45;;;;;;;;;;;;;;;4.25;64.93;100220.03;5014330;28;19925;-63
2022/03/08 11:05:30;;;;;;;;;;;;;;;4.24;65.11;100226.88;5013774;28;19963;-65
2022/03/08 11:08:15;;;;;;;;;;;;;;;4.25;64.92;100225.16;5013716;28;19967;-65
2022/03/08 11:10:59;;;;;;;;;;;;;;;4.26;64.80;100232.06;5014757;28;20325;-63
2022/03/08 11:13:43;;;;;;;;;;;;;;;4.29;65.37;100227.06;5014108;28;20363;-65
2022/03/08 11:16:30;;;;;;;;;;;;;;;4.29;65.23;100226.16;5013918;28;20320;-64
2022/03/08 11:19:14;;;;;;;;;;;;;;;4.29;65.26;100219.38;5013567;28;19944;-64
2022/03/08 11:21:58;;;;;;;;;;;;;;;4.29;65.57;100224.50;5013775;28;19924;-64
2022/03/08 11:24:42;;;;;;;;;;;;;;;4.32;65.20;100219.50;5014476;28;19971;-64
2022/03/08 11:27:26;;;;;;;;;;;;;;;4.31;64.63;100217.75;5013503;28;20281;-64
2022/03/08 11:30:12;;;;;;;;;;;;;;;4.30;65.25;100221.13;5013767;28;19924;-64
2022/03/08 11:32:58;;;;;;;;;;;;;;;4.32;64.96;100209.25;5012628;28;19924;-65
2022/03/08 11:35:48;;;;;;;;;;;;;;;4.30;65.14;100217.66;5014006;28;20325;-64
2022/03/08 11:38:33;;;;;;;;;;;;;;;4.30;65.53;100220.22;5013680;28;19925;-65
2022/03/08 11:41:23;;;;;;;;;;;;;;;4.34;64.50;100220.47;5014268;28;19923;-64
2022/03/08 11:44:07;;;;;;;;;;;;;;;4.35;65.52;100218.75;5013925;28;19956;-64
2022/03/08 11:47:18;;;;;;;;;;;;;;;4.37;65.24;100217.16;5014312;28;19924;-64
2022/03/08 11:50:02;;;;;;;;;;;;;;;4.38;64.69;100213.78;5013965;28;20415;-64
2022/03/08 11:52:49;;;;;;;;;;;;;;;4.37;65.50;100210.31;5014111;28;19964;-64
2022/03/08 11:55:38;;;;;;;;;;;;;;;4.38;64.54;100203.50;5013448;28;19968;-64
2022/03/08 11:58:42;;;;;;;;;;;;;;;4.37;64.75;100212.88;5013853;28;20269;-64
2022/03/08 12:01:30;;;;;;;;;;;;;;;4.39;65.19;100210.41;5013792;28;20387;-64
2022/03/08 12:04:16;;;;;;;;;;;;;;;4.38;65.05;100216.34;5013489;28;19928;-64
2022/03/08 12:07:04;;;;;;;;;;;;;;;4.37;64.80;100217.16;5012831;28;19924;-65
2022/03/08 12:10:08;;;;;;;;;;;;;;;4.38;64.55;100213.78;5013378;28;20341;-65
2022/03/08 12:12:53;;;;;;;;;;;;;;;4.39;65.51;100215.53;5013702;28;20339;-64
2022/03/08 12:15:57;;;;;;;;;;;;;;;4.40;64.65;100202.75;5013501;28;19972;-65
2022/03/08 12:18:53;;;;;;;;;;;;;;;4.40;65.00;100204.44;5014055;28;19980;-65
2022/03/08 12:21:38;;;;;;;;;;;;;;;4.39;64.86;100198.44;5012733;28;19981;-65
2022/03/08 12:24:23;;;;;;;;;;;;;;;4.39;65.30;100189.84;5013746;28;19924;-64
2022/03/08 12:27:08;;;;;;;;;;;;;;;4.43;64.74;100191.75;5013953;28;19924;-64
2022/03/08 12:29:51;;;;;;;;;;;;;;;4.45;65.13;100187.53;5013065;28;20395;-64
2022/03/08 12:32:37;;;;;;;;;;;;;;;4.44;65.11;100175.50;5013271;28;19925;-65
2022/03/08 12:35:22;;;;;;;;;;;;;;;4.46;64.49;100173.91;5012616;28;19971;-66
2022/03/08 12:38:06;;;;;;;;;;;;;;;4.47;64.52;100179.94;5012906;28;19924;-65
2022/03/08 12:40:50;;;;;;;;;;;;;;;4.46;64.88;100170.47;5013539;28;19924;-65
2022/03/08 12:43:35;;;;;;;;;;;;;;;4.45;64.87;100178.97;5012407;28;19928;-66
2022/03/08 12:46:18;;;;;;;;;;;;;;;4.45;65.15;100176.41;5016049;28;19925;-65
2022/03/08 12:49:03;;;;;;;;;;;;;;;4.43;64.82;100176.34;5016594;28;20368;-64
2022/03/08 12:51:47;;;;;;;;;;;;;;;4.42;64.66;100190.00;5016828;28;19963;-65
2022/03/08 12:54:32;;;;;;;;;;;;;;;4.46;65.11;100185.88;5016497;28;19923;-64
2022/03/08 12:57:16;;;;;;;;;;;;;;;4.48;65.04;100173.97;5015916;28;19971;-65
2022/03/08 13:00:00;;;;;;;;;;;;;;;4.49;64.41;100170.59;5017234;28;19923;-64
2022/03/08 13:02:44;;;;;;;;;;;;;;;4.47;65.02;100164.53;5017014;28;19928;-64
2022/03/08 13:05:29;;;;;;;;;;;;;;;4.48;64.31;100168.84;5016265;28;19924;-64
2022/03/08 13:08:16;;;;;;;;;;;;;;;4.46;65.04;100167.91;5016351;28;19959;-65
2022/03/08 13:11:04;;;;;;;;;;;;;;;4.48;64.42;100166.28;5015461;28;19975;-65
2022/03/08 13:13:48;;;;;;;;;;;;;;;4.50;65.13;100160.38;5015479;28;19963;-64
2022/03/08 13:16:37;;;;;;;;;;;;;;;4.52;64.34;100161.34;5016827;28;20023;-65
2022/03/08 13:19:21;;;;;;;;;;;;;;;4.52;65.10;100155.31;5016817;28;20007;-65
2022/03/08 13:22:05;;;;;;;;;;;;;;;4.51;65.17;100154.44;5015353;28;19956;-65
2022/03/08 13:25:08;;;;;;;;;;;;;;;4.52;64.59;100158.78;5015435;28;19925;-64
2022/03/08 13:27:57;;;;;;;;;;;;;;;4.52;65.09;100158.78;5015986;28;19924;-65
2022/03/08 13:30:45;;;;;;;;;;;;;;;4.53;64.33;100157.06;5015820;28;20002;-66
2022/03/08 13:33:39;;;;;;;;;;;;;;;4.54;64.99;100162.28;5016141;28;20134;-64
2022/03/08 13:36:22;;;;;;;;;;;;;;;4.53;64.56;100160.53;5015796;28;19980;-65
2022/03/08 13:39:07;;;;;;;;;;;;;;;4.51;65.30;100158.72;5016254;28;19925;-66
2022/03/08 13:41:51;;;;;;;;;;;;;;;4.53;64.31;100154.50;5016395;28;20021;-65
2022/03/08 13:44:35;;;;;;;;;;;;;;;4.53;64.95;100157.06;5015356;28;19928;-65
2022/03/08 13:47:20;;;;;;;;;;;;;;;4.53;65.03;100155.38;5015409;28;20012;-64
2022/03/08 13:50:04;;;;;;;;;;;;;;;4.53;65.07;100160.53;5016134;28;19983;-64
2022/03/08 13:52:55;;;;;;;;;;;;;;;4.55;64.75;100161.47;5015705;28;19940;-65
2022/03/08 13:55:41;;;;;;;;;;;;;;;4.57;65.12;100153.81;5015300;28;20388;-64
2022/03/08 13:58:26;;;;;;;;;;;;;;;4.56;65.09;100152.06;5014690;28;19989;-65
2022/03/08 14:01:15;;;;;;;;;;;;;;;4.57;65.04;100147.03;5015534;28;20335;-65
2022/03/08 14:03:59;;;;;;;;;;;;;;;4.59;64.67;100143.63;5015069;28;19924;-65
2022/03/08 14:06:50;;;;;;;;;;;;;;;4.56;65.09;100150.41;5015627;28;19923;-65
2022/03/08 14:09:33;;;;;;;;;;;;;;;4.56;64.93;100152.06;5015864;28;20463;-65
2022/03/08 14:12:17;;;;;;;;;;;;;;;4.54;65.32;100144.31;5015669;28;20403;-64
2022/03/08 14:15:02;;;;;;;;;;;;;;;4.56;64.74;100155.53;5015119;28;19968;-65
2022/03/08 14:17:47;;;;;;;;;;;;;;;4.59;65.13;100152.19;5014224;28;20395;-65
2022/03/08 14:20:35;;;;;;;;;;;;;;;4.64;64.91;100155.84;5014253;28;19925;-65